createdAt,value
2023-04-08T00:02:25.150Z,9.00
2023-04-08T00:04:53.177Z,9.43
2023-04-08T00:07:21.301Z,9.17
2023-04-08T00:09:49.348Z,10.03
2023-04-08T00:12:17.443Z,9.53
2023-04-08T00:14:46.728Z,9.57
2023-04-08T00:17:14.681Z,9.00
2023-04-08T00:19:42.569Z,9.10
2023-04-08T00:22:10.502Z,9.17
2023-04-08T00:24:40.469Z,9.30
2023-04-08T00:27:08.434Z,9.23
2023-04-08T00:29:36.450Z,8.40
2023-04-08T00:32:05.924Z,10.10
2023-04-08T00:34:33.834Z,9.00
2023-04-08T00:37:02.218Z,9.17
2023-04-08T00:39:30.127Z,9.57
2023-04-08T00:41:58.108Z,8.90
2023-04-08T00:44:26.369Z,8.67
2023-04-08T00:46:54.339Z,9.50
2023-04-08T00:49:23.721Z,9.60
2023-04-08T00:51:51.968Z,9.50
2023-04-08T00:54:19.872Z,9.90
2023-04-08T00:56:50.460Z,9.83
2023-04-08T00:59:19.513Z,9.80
2023-04-08T01:01:56.054Z,9.47
2023-04-08T01:04:45.448Z,9.17
2023-04-08T01:07:18.645Z,9.63
2023-04-08T01:09:49.378Z,8.80
2023-04-08T01:12:28.249Z,8.47
2023-04-08T01:15:01.377Z,8.60
2023-04-08T01:17:31.505Z,8.87
2023-04-08T01:20:04.333Z,8.73
2023-04-08T01:22:41.037Z,8.47
2023-04-08T01:25:16.639Z,9.60
2023-04-08T01:27:48.439Z,9.07
2023-04-08T01:30:19.911Z,8.70
2023-04-08T01:32:48.818Z,9.50
2023-04-08T01:35:17.525Z,9.17
2023-04-08T01:37:47.902Z,9.63
2023-04-08T01:40:17.707Z,9.77
2023-04-08T01:42:48.462Z,9.83
2023-04-08T01:45:17.388Z,10.00
2023-04-08T01:47:48.286Z,10.77
2023-04-08T01:50:17.859Z,9.93
2023-04-08T01:52:50.521Z,9.53
2023-04-08T01:55:18.936Z,10.37
2023-04-08T01:57:51.717Z,10.07
2023-04-08T02:00:23.753Z,11.00
2023-04-08T02:02:53.644Z,10.60
2023-04-08T02:05:22.062Z,11.20
2023-04-08T02:07:50.555Z,11.03
2023-04-08T02:10:18.546Z,10.87
2023-04-08T02:12:49.076Z,11.57
2023-04-08T02:15:17.345Z,10.43
2023-04-08T02:17:47.149Z,10.87
2023-04-08T02:20:19.749Z,11.27
2023-04-08T02:22:51.622Z,10.73
2023-04-08T02:25:24.216Z,11.37
2023-04-08T02:27:55.583Z,10.83
2023-04-08T02:30:24.989Z,10.97
2023-04-08T02:32:54.944Z,12.07
2023-04-08T02:35:24.755Z,11.53
2023-04-08T02:37:52.967Z,11.57
2023-04-08T02:40:25.998Z,12.07
2023-04-08T02:42:55.931Z,11.77
2023-04-08T02:45:28.535Z,12.40
2023-04-08T02:47:56.718Z,11.43
2023-04-08T02:50:24.766Z,12.13
2023-04-08T02:52:52.725Z,11.80
2023-04-08T02:55:20.974Z,12.30
2023-04-08T02:57:49.442Z,12.43
2023-04-08T03:00:19.188Z,13.30
2023-04-08T03:02:47.306Z,13.93
2023-04-08T03:05:16.335Z,15.00
2023-04-08T03:07:44.412Z,14.50
2023-04-08T03:10:13.402Z,13.83
2023-04-08T03:12:41.477Z,13.03
2023-04-08T03:15:09.954Z,13.93
2023-04-08T03:17:39.281Z,12.50
2023-04-08T03:20:08.579Z,12.57
2023-04-08T03:22:37.893Z,12.47
2023-04-08T03:25:06.486Z,11.73
2023-04-08T03:27:34.555Z,12.07
2023-04-08T03:30:02.447Z,11.90
2023-04-08T03:32:30.481Z,11.67
2023-04-08T03:34:59.895Z,11.70
2023-04-08T03:37:27.871Z,12.03
2023-04-08T03:39:56.485Z,11.70
2023-04-08T03:42:24.517Z,12.43
2023-04-08T03:44:52.397Z,11.33
2023-04-08T03:47:20.362Z,12.77
2023-04-08T03:49:48.345Z,11.87
2023-04-08T03:52:17.647Z,13.20
2023-04-08T03:54:45.589Z,12.60
2023-04-08T03:57:13.505Z,12.27
2023-04-08T03:59:41.482Z,12.63
2023-04-08T04:02:09.698Z,11.83
2023-04-08T04:04:37.811Z,12.50
2023-04-08T04:07:05.841Z,12.53
2023-04-08T04:09:35.159Z,15.03
2023-04-08T04:12:03.125Z,17.00
2023-04-08T04:14:31.042Z,18.80
2023-04-08T04:16:59.002Z,17.63
2023-04-08T04:19:30.780Z,17.90
2023-04-08T04:21:58.699Z,18.97
2023-04-08T04:24:26.614Z,24.93
2023-04-08T04:26:55.938Z,24.60
2023-04-08T04:29:23.854Z,24.00
2023-04-08T04:31:51.751Z,22.30
2023-04-08T04:34:19.657Z,22.63
2023-04-08T04:36:47.549Z,20.27
2023-04-08T04:39:15.691Z,20.77
2023-04-08T04:41:44.421Z,22.50
2023-04-08T04:44:13.709Z,22.43
2023-04-08T04:46:41.623Z,21.50
2023-04-08T04:49:09.545Z,20.80
2023-04-08T04:51:37.718Z,17.00
2023-04-08T04:54:06.052Z,16.10
2023-04-08T04:56:34.219Z,15.73
2023-04-08T04:59:02.180Z,13.73
2023-04-08T05:01:31.596Z,14.73
2023-04-08T05:03:59.584Z,13.97
2023-04-08T05:06:28.098Z,12.63
2023-04-08T05:08:56.129Z,13.67
2023-04-08T05:11:24.073Z,14.63
2023-04-08T05:13:52.072Z,13.97
2023-04-08T05:16:20.149Z,14.20
2023-04-08T05:18:49.807Z,13.97
2023-04-08T05:21:18.019Z,13.80
2023-04-08T05:23:45.932Z,14.13
2023-04-08T05:26:15.832Z,14.47
2023-04-08T05:28:44.267Z,15.07
2023-04-08T05:31:12.406Z,14.23
2023-04-08T05:33:40.390Z,14.77
2023-04-08T05:36:09.740Z,14.33
2023-04-08T05:38:37.727Z,13.93
2023-04-08T05:41:05.937Z,14.20
2023-04-08T05:43:34.252Z,13.87
2023-04-08T05:46:02.262Z,13.63
2023-04-08T05:48:30.163Z,12.93
2023-04-08T05:50:58.076Z,13.33
2023-04-08T05:53:27.595Z,12.57
2023-04-08T05:55:55.534Z,12.33
2023-04-08T05:58:23.456Z,12.57
2023-04-08T06:00:51.500Z,12.93
2023-04-08T06:03:20.678Z,14.57
2023-04-08T06:05:49.093Z,12.63
2023-04-08T06:08:17.161Z,12.53
2023-04-08T06:10:51.441Z,11.43
2023-04-08T06:13:21.055Z,10.80
2023-04-08T06:15:50.244Z,10.90
2023-04-08T06:18:18.665Z,10.67
2023-04-08T06:20:46.582Z,10.40
2023-04-08T06:23:14.681Z,11.13
2023-04-08T06:25:43.724Z,10.07
2023-04-08T06:28:12.972Z,10.00
2023-04-08T06:30:40.888Z,9.60
2023-04-08T06:33:09.167Z,9.17
2023-04-08T06:35:37.411Z,9.57
2023-04-08T06:38:05.399Z,9.27
2023-04-08T06:40:33.433Z,8.90
2023-04-08T06:43:01.551Z,9.50
2023-04-08T06:45:37.044Z,9.80
2023-04-08T06:48:06.735Z,8.90
2023-04-08T06:50:34.940Z,9.90
2023-04-08T06:53:02.824Z,10.43
2023-04-08T06:55:30.948Z,9.93
2023-04-08T06:57:58.876Z,9.17
2023-04-08T07:00:27.346Z,9.63
2023-04-08T07:02:56.803Z,8.40
2023-04-08T07:05:24.804Z,8.37
2023-04-08T07:07:52.718Z,8.07
2023-04-08T07:10:20.880Z,7.80
2023-04-08T07:12:49.075Z,8.93
2023-04-08T07:15:17.118Z,8.03
2023-04-08T07:17:45.147Z,8.70
2023-04-08T07:20:14.824Z,7.87
2023-04-08T07:22:42.754Z,7.97
2023-04-08T07:25:11.124Z,7.80
2023-04-08T07:27:39.039Z,8.10
2023-04-08T07:30:08.284Z,7.90
2023-04-08T07:32:36.695Z,7.13
2023-04-08T07:35:05.045Z,8.00
2023-04-08T07:37:34.298Z,7.27
2023-04-08T07:40:02.213Z,8.43
2023-04-08T07:42:30.163Z,8.67
2023-04-08T07:44:58.122Z,7.93
2023-04-08T07:47:26.308Z,7.40
2023-04-08T07:49:54.552Z,8.17
2023-04-08T07:52:22.538Z,8.40
2023-04-08T07:54:51.957Z,10.53
2023-04-08T07:57:20.004Z,8.57
2023-04-08T07:59:48.095Z,8.33
2023-04-08T08:02:16.104Z,7.53
2023-04-08T08:04:44.367Z,7.70
2023-04-08T08:07:12.425Z,7.87
2023-04-08T08:09:40.409Z,7.63
2023-04-08T08:12:09.738Z,8.33
2023-04-08T08:14:37.800Z,7.20
2023-04-08T08:17:05.858Z,7.20
2023-04-08T08:19:33.784Z,7.77
2023-04-08T08:22:01.764Z,7.27
2023-04-08T08:24:29.708Z,7.27
2023-04-08T08:26:57.710Z,7.27
2023-04-08T08:29:26.996Z,6.73
2023-04-08T08:31:54.885Z,7.17
2023-04-08T08:34:23.084Z,7.00
2023-04-08T08:36:51.161Z,7.37
2023-04-08T08:39:19.125Z,7.53
2023-04-08T08:41:47.097Z,7.10
2023-04-08T08:44:15.696Z,6.73
2023-04-08T08:46:48.272Z,7.20
2023-04-08T08:49:16.499Z,7.27
2023-04-08T08:51:47.387Z,7.37
2023-04-08T08:54:16.922Z,7.10
2023-04-08T08:56:44.894Z,6.83
2023-04-08T08:59:12.943Z,6.90
2023-04-08T09:01:41.954Z,6.83
2023-04-08T09:04:15.811Z,6.63
2023-04-08T09:06:44.641Z,6.50
2023-04-08T09:09:12.724Z,6.70
2023-04-08T09:11:42.491Z,6.90
2023-04-08T09:14:23.413Z,7.10
2023-04-08T09:16:52.186Z,7.00
2023-04-08T09:19:21.583Z,6.17
2023-04-08T09:22:08.080Z,6.63
2023-04-08T09:24:37.146Z,7.00
2023-04-08T09:27:05.786Z,6.37
2023-04-08T09:29:37.317Z,6.87
2023-04-08T09:32:07.216Z,6.83
2023-04-08T09:34:36.692Z,6.70
2023-04-08T09:37:04.676Z,6.70
2023-04-08T09:39:32.596Z,6.00
2023-04-08T09:42:05.053Z,6.93
2023-04-08T09:44:36.312Z,6.97
2023-04-08T09:47:13.738Z,6.73
2023-04-08T09:49:49.091Z,6.57
2023-04-08T09:52:25.345Z,6.80
2023-04-08T09:54:56.275Z,6.50
2023-04-08T09:57:33.446Z,6.43
2023-04-08T10:00:06.430Z,6.80
2023-04-08T10:02:50.328Z,6.27
2023-04-08T10:05:20.370Z,7.60
2023-04-08T10:07:49.703Z,6.60
2023-04-08T10:10:18.184Z,6.50
2023-04-08T10:12:46.470Z,6.80
2023-04-08T10:15:27.785Z,6.30
2023-04-08T10:17:56.810Z,6.40
2023-04-08T10:20:45.890Z,6.33
2023-04-08T10:23:15.419Z,5.97
2023-04-08T10:25:45.020Z,6.47
2023-04-08T10:28:34.152Z,5.93
2023-04-08T10:31:02.971Z,6.20
2023-04-08T10:33:37.180Z,5.77
2023-04-08T10:36:12.666Z,6.33
2023-04-08T10:38:42.255Z,5.97
2023-04-08T10:41:11.945Z,5.70
2023-04-08T10:43:39.875Z,6.33
2023-04-08T10:46:11.671Z,5.67
2023-04-08T10:48:44.946Z,5.97
2023-04-08T10:51:14.240Z,6.23
2023-04-08T10:53:42.182Z,6.37
2023-04-08T10:56:13.405Z,5.63
2023-04-08T10:58:49.852Z,6.43
2023-04-08T11:01:18.141Z,6.37
2023-04-08T11:03:46.610Z,6.07
2023-04-08T11:06:16.372Z,6.23
2023-04-08T11:08:44.740Z,5.63
2023-04-08T11:11:12.867Z,5.87
2023-04-08T11:13:48.720Z,5.67
2023-04-08T11:16:22.799Z,5.47
2023-04-08T11:18:52.626Z,6.17
2023-04-08T11:21:22.547Z,6.20
2023-04-08T11:23:51.960Z,6.03
2023-04-08T11:26:21.117Z,6.03
2023-04-08T11:28:50.937Z,6.23
2023-04-08T11:31:21.768Z,6.07
2023-04-08T11:33:55.030Z,6.03
2023-04-08T11:36:44.914Z,5.87
2023-04-08T11:39:16.077Z,5.70
2023-04-08T11:41:44.495Z,5.20
2023-04-08T11:44:12.659Z,5.73
2023-04-08T11:46:42.335Z,5.77
2023-04-08T11:49:11.911Z,5.90
2023-04-08T11:51:57.780Z,5.43
2023-04-08T11:54:29.504Z,5.20
2023-04-08T11:56:58.250Z,5.60
2023-04-08T11:59:28.937Z,4.93
2023-04-08T12:01:57.194Z,4.90
2023-04-08T12:04:25.590Z,4.67
2023-04-08T12:06:53.776Z,4.70
2023-04-08T12:09:23.652Z,4.47
2023-04-08T12:11:51.587Z,4.20
2023-04-08T12:14:21.883Z,4.80
2023-04-08T12:16:49.811Z,4.20
2023-04-08T12:19:18.091Z,4.73
2023-04-08T12:21:46.259Z,4.00
2023-04-08T12:24:14.633Z,4.93
2023-04-08T12:26:44.314Z,4.80
2023-04-08T12:29:12.467Z,4.37
2023-04-08T12:31:40.634Z,4.27
2023-04-08T12:34:08.688Z,4.30
2023-04-08T12:36:38.957Z,3.47
2023-04-08T12:39:07.897Z,4.17
2023-04-08T12:41:35.880Z,4.10
2023-04-08T12:44:05.427Z,4.07
2023-04-08T12:46:33.698Z,5.10
2023-04-08T12:49:04.739Z,5.47
2023-04-08T12:51:34.081Z,4.87
2023-04-08T12:54:03.451Z,4.80
2023-04-08T12:56:31.737Z,4.83
2023-04-08T12:58:59.976Z,5.73
2023-04-08T13:01:30.621Z,5.20
2023-04-08T13:03:59.041Z,5.13
2023-04-08T13:06:27.675Z,4.57
2023-04-08T13:08:55.640Z,4.73
2023-04-08T13:11:23.679Z,5.00
2023-04-08T13:13:51.705Z,4.67
2023-04-08T13:16:19.895Z,4.80
2023-04-08T13:18:49.472Z,5.30
2023-04-08T13:21:17.576Z,4.83
2023-04-08T13:23:46.891Z,4.80
2023-04-08T13:26:15.285Z,5.63
2023-04-08T13:28:56.099Z,5.77
2023-04-08T13:31:25.809Z,8.60
2023-04-08T13:33:57.872Z,7.00
2023-04-08T13:36:26.866Z,4.67
2023-04-08T13:38:54.825Z,4.73
2023-04-08T13:41:22.817Z,4.43
2023-04-08T13:43:50.899Z,4.43
2023-04-08T13:46:19.044Z,4.13
2023-04-08T13:48:47.025Z,4.20
2023-04-08T13:51:16.543Z,4.67
2023-04-08T13:53:44.474Z,4.00
2023-04-08T13:56:12.384Z,3.80
2023-04-08T13:58:40.581Z,4.33
2023-04-08T14:01:08.655Z,4.67
2023-04-08T14:03:36.603Z,4.03
2023-04-08T14:06:04.645Z,3.93
2023-04-08T14:08:34.000Z,4.50
2023-04-08T14:11:01.905Z,5.30
2023-04-08T14:13:30.057Z,4.23
2023-04-08T14:15:58.502Z,4.43
2023-04-08T14:18:26.651Z,4.60
2023-04-08T14:20:54.667Z,5.00
2023-04-08T14:23:22.772Z,5.17
2023-04-08T14:25:52.061Z,5.00
2023-04-08T14:28:19.982Z,5.73
2023-04-08T14:30:48.821Z,5.77
2023-04-08T14:33:17.175Z,5.27
2023-04-08T14:35:45.227Z,5.20
2023-04-08T14:38:13.205Z,5.10
2023-04-08T14:40:41.188Z,6.00
2023-04-08T14:43:10.567Z,5.87
2023-04-08T14:45:38.492Z,5.53
2023-04-08T14:48:06.724Z,4.97
2023-04-08T14:50:34.760Z,5.20
2023-04-08T14:53:02.849Z,5.47
2023-04-08T14:55:32.338Z,5.67
2023-04-08T14:58:01.165Z,4.97
2023-04-08T15:00:30.656Z,5.30
2023-04-08T15:02:58.868Z,5.00
2023-04-08T15:05:26.921Z,5.50
2023-04-08T15:07:55.093Z,5.60
2023-04-08T15:10:23.105Z,5.43
2023-04-08T15:12:51.089Z,4.97
2023-04-08T15:15:19.013Z,5.10
2023-04-08T15:17:50.228Z,5.27
2023-04-08T15:20:20.339Z,5.20
2023-04-08T15:22:48.367Z,4.93
2023-04-08T15:25:16.619Z,5.50
2023-04-08T15:27:44.529Z,5.30
2023-04-08T15:30:12.943Z,5.63
2023-04-08T15:32:41.389Z,5.23
2023-04-08T15:35:11.502Z,5.53
2023-04-08T15:37:39.419Z,4.13
2023-04-08T15:40:08.917Z,4.93
2023-04-08T15:42:36.844Z,5.30
2023-04-08T15:45:05.195Z,4.30
2023-04-08T15:47:34.391Z,4.90
2023-04-08T15:50:02.412Z,5.20
2023-04-08T15:52:32.853Z,5.03
2023-04-08T15:55:02.460Z,5.00
2023-04-08T15:57:32.150Z,4.70
2023-04-08T16:00:00.154Z,4.70
2023-04-08T16:02:28.398Z,4.37
2023-04-08T16:04:56.481Z,4.60
2023-04-08T16:07:24.639Z,4.77
2023-04-08T16:09:54.183Z,4.97
2023-04-08T16:12:22.191Z,5.03
2023-04-08T16:14:50.950Z,5.80
2023-04-08T16:17:18.944Z,6.40
2023-04-08T16:19:47.244Z,8.57
2023-04-08T16:22:15.377Z,8.43
2023-04-08T16:24:43.513Z,7.27
2023-04-08T16:27:12.889Z,7.10
2023-04-08T16:29:40.872Z,6.50
2023-04-08T16:32:09.019Z,5.23
2023-04-08T16:34:37.420Z,5.40
2023-04-08T16:37:05.442Z,5.13
2023-04-08T16:39:33.398Z,5.77
2023-04-08T16:42:01.913Z,5.70
2023-04-08T16:44:31.343Z,5.43
2023-04-08T16:46:59.265Z,6.30
2023-04-08T16:49:27.196Z,5.73
2023-04-08T16:51:55.202Z,6.47
2023-04-08T16:54:23.113Z,7.40
2023-04-08T16:56:51.329Z,6.80
2023-04-08T16:59:19.257Z,6.90
2023-04-08T17:01:48.644Z,5.83
2023-04-08T17:04:16.605Z,5.77
2023-04-08T17:06:44.601Z,6.03
2023-04-08T17:09:12.665Z,6.17
2023-04-08T17:11:40.616Z,5.70
2023-04-08T17:14:08.690Z,5.50
2023-04-08T17:16:36.748Z,5.63
2023-04-08T17:19:06.073Z,5.40
2023-04-08T17:21:34.303Z,5.87
2023-04-08T17:24:02.308Z,5.80
2023-04-08T17:26:30.394Z,5.80
2023-04-08T17:28:58.543Z,5.80
2023-04-08T17:31:26.559Z,5.33
2023-04-08T17:33:54.533Z,5.67
2023-04-08T17:36:23.931Z,5.27
2023-04-08T17:38:52.297Z,5.77
2023-04-08T17:41:38.179Z,6.87
2023-04-08T17:44:07.522Z,6.93
2023-04-08T17:46:35.477Z,7.60
2023-04-08T17:49:03.443Z,7.20
2023-04-08T17:51:33.028Z,7.30
2023-04-08T17:54:01.281Z,7.00
2023-04-08T17:56:29.252Z,7.40
2023-04-08T17:58:57.165Z,8.97
2023-04-08T18:01:25.304Z,9.93
2023-04-08T18:03:53.468Z,6.93
2023-04-08T18:06:21.559Z,6.90
2023-04-08T18:08:50.928Z,5.40
2023-04-08T18:11:19.646Z,5.80
2023-04-08T18:13:48.773Z,6.33
2023-04-08T18:16:18.226Z,7.10
2023-04-08T18:18:46.885Z,6.73
2023-04-08T18:21:17.785Z,6.67
2023-04-08T18:23:46.953Z,6.13
2023-04-08T18:26:16.356Z,6.77
2023-04-08T18:28:44.318Z,7.90
2023-04-08T18:31:12.311Z,8.27
2023-04-08T18:33:40.392Z,8.77
2023-04-08T18:36:09.690Z,9.03
2023-04-08T18:38:39.971Z,9.77
2023-04-08T18:41:08.159Z,10.13
2023-04-08T18:43:37.557Z,10.07
2023-04-08T18:46:05.750Z,10.67
2023-04-08T18:48:34.209Z,10.57
2023-04-08T18:51:02.660Z,10.10
2023-04-08T18:53:30.698Z,10.03
2023-04-08T18:55:58.748Z,9.33
2023-04-08T18:58:27.185Z,10.13
2023-04-08T19:00:56.612Z,9.60
2023-04-08T19:03:27.033Z,10.10
2023-04-08T19:05:55.493Z,10.13
2023-04-08T19:08:23.500Z,10.13
2023-04-08T19:10:51.518Z,10.27
2023-04-08T19:13:19.450Z,10.30
2023-04-08T19:15:47.463Z,11.23
2023-04-08T19:18:16.915Z,12.23
2023-04-08T19:20:45.546Z,11.07
2023-04-08T19:23:13.540Z,10.90
2023-04-08T19:25:41.454Z,11.37
2023-04-08T19:28:09.551Z,13.37
2023-04-08T19:30:38.239Z,15.90
2023-04-08T19:33:07.784Z,17.37
2023-04-08T19:35:37.458Z,16.27
2023-04-08T19:38:08.129Z,16.17
2023-04-08T19:40:36.056Z,17.53
2023-04-08T19:43:04.076Z,18.43
2023-04-08T19:45:32.026Z,18.87
2023-04-08T19:47:59.967Z,20.03
2023-04-08T19:50:28.220Z,22.60
2023-04-08T19:52:57.566Z,22.87
2023-04-08T19:55:25.719Z,23.60
2023-04-08T19:57:54.249Z,23.93
2023-04-08T20:00:22.325Z,23.67
2023-04-08T20:02:51.028Z,23.93
2023-04-08T20:05:19.364Z,22.60
2023-04-08T20:07:47.328Z,22.13
2023-04-08T20:10:16.983Z,20.40
2023-04-08T20:12:45.001Z,19.87
2023-04-08T20:15:23.638Z,21.60
2023-04-08T20:17:53.740Z,22.97
2023-04-08T20:20:22.596Z,23.20
2023-04-08T20:22:50.808Z,25.43
2023-04-08T20:25:20.388Z,26.03
2023-04-08T20:27:48.330Z,28.13
2023-04-08T20:30:16.690Z,30.47
2023-04-08T20:32:44.648Z,32.03
2023-04-08T20:35:13.360Z,33.43
2023-04-08T20:37:41.559Z,32.57
2023-04-08T20:40:10.513Z,36.33
2023-04-08T20:42:39.830Z,34.33
2023-04-08T20:45:09.122Z,36.60
2023-04-08T20:47:37.171Z,36.60
2023-04-08T20:50:05.687Z,32.53
2023-04-08T20:52:34.179Z,34.07
2023-04-08T20:55:02.173Z,33.77
2023-04-08T20:57:30.332Z,34.53
2023-04-08T20:59:59.842Z,32.33
2023-04-08T21:02:27.957Z,33.87
2023-04-08T21:04:56.151Z,33.10
2023-04-08T21:07:25.925Z,31.70
2023-04-08T21:09:53.953Z,30.00
2023-04-08T21:12:21.914Z,32.00
2023-04-08T21:14:50.862Z,31.47
2023-04-08T21:17:20.228Z,31.53
2023-04-08T21:19:48.274Z,30.40
2023-04-08T21:22:17.581Z,31.73
2023-04-08T21:24:45.632Z,31.17
2023-04-08T21:27:13.600Z,31.23
2023-04-08T21:29:41.486Z,28.17
2023-04-08T21:32:09.569Z,32.47
2023-04-08T21:34:39.029Z,32.67
2023-04-08T21:37:07.202Z,30.77
2023-04-08T21:39:35.184Z,31.63
2023-04-08T21:42:03.177Z,31.83
2023-04-08T21:44:31.187Z,32.27
2023-04-08T21:47:01.560Z,31.23
2023-04-08T21:49:30.633Z,29.70
2023-04-08T21:51:59.945Z,27.07
2023-04-08T21:54:27.854Z,24.73
2023-04-08T21:56:56.710Z,22.97
2023-04-08T21:59:24.801Z,22.93
2023-04-08T22:01:52.781Z,22.77
2023-04-08T22:04:21.017Z,19.23
2023-04-08T22:06:49.719Z,20.07
2023-04-08T22:09:19.395Z,18.90
2023-04-08T22:14:45.552Z,17.03
2023-04-08T22:17:13.518Z,16.80
2023-04-08T22:19:41.544Z,15.80
2023-04-08T22:22:09.510Z,15.93
2023-04-08T22:24:38.781Z,16.50
2023-04-08T22:27:06.898Z,15.57
2023-04-08T22:29:34.965Z,15.30
2023-04-08T22:32:02.967Z,15.57
2023-04-08T22:37:18.582Z,14.70
2023-04-08T22:39:47.918Z,18.00
2023-04-08T22:42:15.879Z,17.03
2023-04-08T22:44:43.841Z,15.83
2023-04-08T22:47:11.914Z,15.47
2023-04-08T22:49:42.522Z,15.20
2023-04-08T22:52:10.757Z,14.17
2023-04-08T22:54:38.750Z,12.70
2023-04-08T22:57:08.103Z,12.70
2023-04-08T22:59:36.034Z,12.10
2023-04-08T23:02:04.109Z,11.63
2023-04-08T23:04:32.330Z,12.00
2023-04-08T23:07:00.402Z,13.17
2023-04-08T23:09:28.388Z,13.43
2023-04-08T23:11:56.282Z,14.23
2023-04-08T23:14:25.822Z,14.07
2023-04-08T23:16:53.807Z,15.33
2023-04-08T23:19:21.792Z,14.13
2023-04-08T23:21:49.804Z,13.77
2023-04-08T23:24:17.700Z,14.67
2023-04-08T23:26:46.017Z,13.23
2023-04-08T23:29:13.950Z,14.30
2023-04-08T23:31:43.703Z,14.23
2023-04-08T23:34:11.864Z,14.60
2023-04-08T23:36:39.816Z,13.60
2023-04-08T23:39:07.788Z,12.53
2023-04-08T23:41:35.829Z,11.73
2023-04-08T23:44:03.856Z,11.53
2023-04-08T23:46:31.804Z,14.17
2023-04-08T23:49:01.089Z,12.20
2023-04-08T23:51:29.088Z,12.40
2023-04-08T23:53:57.219Z,12.17
2023-04-08T23:56:25.158Z,11.80
2023-04-08T23:58:53.708Z,11.63
